createdAt,value
2023-02-18T00:00:06.481Z,48.92
2023-02-18T00:02:37.321Z,51.22
2023-02-18T00:05:08.873Z,46.20
2023-02-18T00:07:41.388Z,50.55
2023-02-18T00:10:15.568Z,52.90
2023-02-18T00:12:46.528Z,52.28
2023-02-18T00:15:17.572Z,56.55
2023-02-18T00:17:48.441Z,57.63
2023-02-18T00:20:19.635Z,58.03
2023-02-18T00:22:50.652Z,56.47
2023-02-18T00:25:21.528Z,126.85
2023-02-18T00:27:52.491Z,87.85
2023-02-18T00:30:23.612Z,116.63
2023-02-18T00:32:54.807Z,69.80
2023-02-18T00:35:25.634Z,61.42
2023-02-18T00:37:56.664Z,57.70
2023-02-18T00:40:27.915Z,62.92
2023-02-18T00:43:03.063Z,57.15
2023-02-18T00:45:34.737Z,52.05
2023-02-18T00:48:06.722Z,46.95
2023-02-18T00:50:37.777Z,72.43
2023-02-18T00:53:08.799Z,62.13
2023-02-18T00:55:49.485Z,60.00
2023-02-18T00:58:21.764Z,61.75
2023-02-18T01:00:53.332Z,45.90
2023-02-18T01:03:25.395Z,58.03
2023-02-18T01:05:56.428Z,197.43
2023-02-18T01:08:27.576Z,71.88
2023-02-18T01:11:00.974Z,58.75
2023-02-18T01:13:32.526Z,59.10
2023-02-18T01:16:04.329Z,60.78
2023-02-18T01:18:36.084Z,98.40
2023-02-18T01:21:12.740Z,107.90
2023-02-18T01:23:44.756Z,89.60
2023-02-18T01:26:19.625Z,63.45
2023-02-18T01:28:50.955Z,49.50
2023-02-18T01:31:22.072Z,67.43
2023-02-18T01:33:52.923Z,64.43
2023-02-18T01:36:24.465Z,57.30
2023-02-18T01:39:00.087Z,60.83
2023-02-18T01:41:31.161Z,65.55
2023-02-18T01:44:32.688Z,58.25
2023-02-18T01:47:03.973Z,65.22
2023-02-18T01:49:38.093Z,56.10
2023-02-18T01:52:21.356Z,65.10
2023-02-18T01:54:55.463Z,66.30
2023-02-18T01:57:36.991Z,68.07
2023-02-18T02:00:13.807Z,35.67
2023-02-18T02:02:54.239Z,47.53
2023-02-18T02:05:25.496Z,50.90
2023-02-18T02:07:58.668Z,53.78
2023-02-18T02:10:45.316Z,61.45
2023-02-18T02:13:55.346Z,63.63
2023-02-18T02:16:31.085Z,46.42
2023-02-18T02:23:05.149Z,57.40
2023-02-18T02:25:42.121Z,71.10
2023-02-18T02:28:43.103Z,63.55
2023-02-18T02:31:51.797Z,55.85
2023-02-18T02:34:57.198Z,59.60
2023-02-18T02:38:06.657Z,52.53
2023-02-18T02:40:54.958Z,53.63
2023-02-18T02:43:44.770Z,35.55
2023-02-18T02:46:33.830Z,51.65
2023-02-18T02:49:35.968Z,49.10
2023-02-18T02:52:34.052Z,51.28
2023-02-18T02:55:11.560Z,56.20
2023-02-18T02:57:56.720Z,50.10
2023-02-18T03:00:41.298Z,46.13
2023-02-18T03:03:56.588Z,45.92
2023-02-18T03:06:32.775Z,52.63
2023-02-18T03:09:25.154Z,52.47
2023-02-18T03:12:05.322Z,49.70
2023-02-18T03:14:51.442Z,54.85
2023-02-18T03:20:22.209Z,42.05
2023-02-18T03:22:55.664Z,48.33
2023-02-18T03:25:27.877Z,50.08
2023-02-18T03:28:03.649Z,44.80
2023-02-18T03:30:53.990Z,51.75
2023-02-18T03:33:49.991Z,49.28
2023-02-18T03:36:23.925Z,47.25
2023-02-18T03:39:08.865Z,49.03
2023-02-18T03:41:44.319Z,46.78
2023-02-18T03:44:17.791Z,45.85
2023-02-18T03:46:51.039Z,45.15
2023-02-18T03:49:23.348Z,44.72
2023-02-18T03:52:14.193Z,44.65
2023-02-18T03:54:45.552Z,41.45
2023-02-18T03:57:16.775Z,44.08
2023-02-18T03:59:55.585Z,42.88
2023-02-18T04:02:26.841Z,50.92
2023-02-18T04:04:58.215Z,44.90
2023-02-18T04:07:51.362Z,39.33
2023-02-18T04:10:24.403Z,40.80
2023-02-18T04:12:55.492Z,45.75
2023-02-18T04:15:26.761Z,43.60
2023-02-18T04:17:59.527Z,47.63
2023-02-18T04:20:50.815Z,48.90
2023-02-18T04:23:21.986Z,43.58
2023-02-18T04:25:54.206Z,45.72
2023-02-18T04:28:26.637Z,48.58
2023-02-18T04:30:58.049Z,41.28
2023-02-18T04:33:29.207Z,51.17
2023-02-18T04:36:00.487Z,51.40
2023-02-18T04:38:31.962Z,48.90
2023-02-18T04:41:04.165Z,53.47
2023-02-18T04:43:35.393Z,58.65
2023-02-18T04:48:50.224Z,52.90
2023-02-18T04:51:21.604Z,53.55
2023-02-18T04:53:54.086Z,50.95
2023-02-18T04:56:25.220Z,50.65
2023-02-18T04:58:56.439Z,55.80
2023-02-18T05:01:30.451Z,51.33
2023-02-18T05:04:10.870Z,55.00
2023-02-18T05:06:44.689Z,57.53
2023-02-18T05:11:51.433Z,63.45
2023-02-18T05:14:24.527Z,57.58
2023-02-18T05:16:57.183Z,56.70
2023-02-18T05:19:28.641Z,64.85
2023-02-18T05:21:59.912Z,58.13
2023-02-18T05:24:31.053Z,55.90
2023-02-18T05:27:02.320Z,54.63
2023-02-18T05:29:33.822Z,54.75
2023-02-18T05:32:10.608Z,53.17
2023-02-18T05:34:41.893Z,55.00
2023-02-18T05:37:15.140Z,50.00
2023-02-18T05:40:07.208Z,52.50
2023-02-18T05:42:58.127Z,54.88
2023-02-18T05:45:29.372Z,55.92
2023-02-18T05:48:00.641Z,53.05
2023-02-18T05:50:31.950Z,50.42
2023-02-18T05:53:03.194Z,48.88
2023-02-18T05:55:40.618Z,50.37
2023-02-18T06:00:55.877Z,50.75
2023-02-18T06:03:27.839Z,50.53
2023-02-18T06:06:21.517Z,47.70
2023-02-18T06:08:52.932Z,45.40
2023-02-18T06:11:25.034Z,47.50
2023-02-18T06:13:56.285Z,49.65
2023-02-18T06:16:28.207Z,44.10
2023-02-18T06:18:59.867Z,47.03
2023-02-18T06:21:31.371Z,45.92
2023-02-18T06:24:02.748Z,43.55
2023-02-18T06:26:33.880Z,44.88
2023-02-18T06:29:05.098Z,43.70
2023-02-18T06:31:55.942Z,48.53
2023-02-18T06:34:48.007Z,53.78
2023-02-18T06:37:20.409Z,44.17
2023-02-18T06:39:53.793Z,44.22
2023-02-18T06:42:27.649Z,45.97
2023-02-18T06:44:58.842Z,54.78
2023-02-18T06:47:29.802Z,43.28
2023-02-18T06:50:28.655Z,46.22
2023-02-18T06:53:04.024Z,44.75
2023-02-18T06:55:39.886Z,49.65
2023-02-18T06:58:31.154Z,44.05
2023-02-18T07:01:05.719Z,45.72
2023-02-18T07:03:57.026Z,49.45
2023-02-18T07:06:28.482Z,51.05
2023-02-18T07:09:02.344Z,51.65
2023-02-18T07:14:04.365Z,49.33
2023-02-18T07:16:36.596Z,49.38
2023-02-18T07:19:07.923Z,49.17
2023-02-18T07:21:42.309Z,48.25
2023-02-18T07:24:33.136Z,47.17
2023-02-18T07:27:04.571Z,41.20
2023-02-18T07:29:36.359Z,45.88
2023-02-18T07:32:09.102Z,42.88
2023-02-18T07:34:40.389Z,41.85
2023-02-18T07:37:31.016Z,35.92
2023-02-18T07:40:03.336Z,37.80
2023-02-18T07:42:55.403Z,36.90
2023-02-18T07:45:30.592Z,34.63
2023-02-18T07:48:05.518Z,34.85
2023-02-18T07:50:57.470Z,31.92
2023-02-18T07:53:28.906Z,36.20
2023-02-18T07:56:06.828Z,34.20
2023-02-18T07:58:40.335Z,35.42
2023-02-18T08:01:14.260Z,35.90
2023-02-18T08:03:46.118Z,40.10
2023-02-18T08:06:29.004Z,41.65
2023-02-18T08:09:00.326Z,40.05
2023-02-18T08:11:31.465Z,39.05
2023-02-18T08:14:02.777Z,39.53
2023-02-18T08:16:34.514Z,39.55
2023-02-18T08:19:06.253Z,41.90
2023-02-18T08:21:56.973Z,37.13
2023-02-18T08:24:55.527Z,35.42
2023-02-18T08:27:30.372Z,37.50
2023-02-18T08:30:01.804Z,34.65
2023-02-18T08:32:33.171Z,35.78
2023-02-18T08:35:04.872Z,40.35
2023-02-18T08:37:52.775Z,40.97
2023-02-18T08:40:25.884Z,35.70
2023-02-18T08:42:57.350Z,41.40
2023-02-18T08:45:28.794Z,38.33
2023-02-18T08:48:17.446Z,35.00
2023-02-18T08:50:55.817Z,37.67
2023-02-18T08:53:27.727Z,36.08
2023-02-18T08:55:59.160Z,38.63
2023-02-18T08:58:32.653Z,36.92
2023-02-18T09:01:06.978Z,33.22
2023-02-18T09:04:00.782Z,33.63
2023-02-18T09:09:09.528Z,67.05
2023-02-18T09:11:43.383Z,60.47
2023-02-18T09:14:15.328Z,69.57
2023-02-18T09:16:47.644Z,95.50
2023-02-18T09:19:19.988Z,119.80
2023-02-18T09:21:51.384Z,126.30
2023-02-18T09:24:29.347Z,125.10
2023-02-18T09:27:00.339Z,123.65
2023-02-18T09:29:34.918Z,135.85
2023-02-18T09:32:11.464Z,133.40
2023-02-18T09:34:42.822Z,133.13
2023-02-18T09:37:34.877Z,132.38
2023-02-18T09:40:06.274Z,134.57
2023-02-18T09:42:39.273Z,133.10
2023-02-18T09:45:15.779Z,130.32
2023-02-18T09:47:49.098Z,128.35
2023-02-18T09:50:35.827Z,128.88
2023-02-18T09:53:07.500Z,228.38
2023-02-18T09:55:44.848Z,141.23
2023-02-18T09:58:26.685Z,129.23
2023-02-18T10:01:03.529Z,126.90
2023-02-18T10:06:10.161Z,140.20
2023-02-18T10:08:47.673Z,151.23
2023-02-18T10:11:32.299Z,134.07
2023-02-18T10:14:06.409Z,140.13
2023-02-18T10:16:38.715Z,161.18
2023-02-18T10:19:38.629Z,135.93
2023-02-18T10:22:13.432Z,118.70
2023-02-18T10:24:51.882Z,128.65
2023-02-18T10:27:40.149Z,115.43
2023-02-18T10:30:47.126Z,116.13
2023-02-18T10:33:33.450Z,116.28
2023-02-18T10:36:27.441Z,126.40
2023-02-18T10:39:22.266Z,118.18
2023-02-18T10:42:17.852Z,116.03
2023-02-18T10:48:42.416Z,111.70
2023-02-18T10:51:30.311Z,111.05
2023-02-18T10:54:25.688Z,110.55
2023-02-18T10:57:05.654Z,110.72
2023-02-18T10:59:36.920Z,114.20
2023-02-18T11:02:31.200Z,110.25
2023-02-18T11:05:08.341Z,118.72
2023-02-18T11:07:41.784Z,121.70
2023-02-18T11:10:38.721Z,125.05
2023-02-18T11:13:14.604Z,126.68
2023-02-18T11:16:01.715Z,117.95
2023-02-18T11:18:50.870Z,115.68
2023-02-18T11:21:37.038Z,114.93
2023-02-18T11:24:19.723Z,118.82
2023-02-18T11:26:52.144Z,116.28
2023-02-18T11:29:26.626Z,115.28
2023-02-18T11:31:59.989Z,118.95
2023-02-18T11:34:42.679Z,123.75
2023-02-18T11:37:20.726Z,124.38
2023-02-18T11:39:56.484Z,126.18
2023-02-18T11:42:29.278Z,130.52
2023-02-18T11:45:03.876Z,126.13
2023-02-18T11:47:39.157Z,129.15
2023-02-18T11:50:17.781Z,117.88
2023-02-18T11:52:51.377Z,123.38
2023-02-18T11:55:31.897Z,125.70
2023-02-18T11:58:12.742Z,124.47
2023-02-18T12:00:55.375Z,132.00
2023-02-18T12:04:09.069Z,130.98
2023-02-18T12:06:51.629Z,129.65
2023-02-18T12:09:27.585Z,131.73
2023-02-18T12:12:29.867Z,127.60
2023-02-18T12:15:02.487Z,127.15
2023-02-18T12:17:40.845Z,141.18
2023-02-18T12:20:35.808Z,141.52
2023-02-18T12:23:29.728Z,133.32
2023-02-18T12:26:30.657Z,125.15
2023-02-18T12:29:24.502Z,135.73
2023-02-18T12:32:34.360Z,140.10
2023-02-18T12:35:14.719Z,125.00
2023-02-18T12:38:22.481Z,128.02
2023-02-18T12:41:01.269Z,137.45
2023-02-18T12:43:55.455Z,128.57
2023-02-18T12:46:59.064Z,130.32
2023-02-18T12:50:15.935Z,130.85
2023-02-18T12:53:01.635Z,127.28
2023-02-18T12:55:58.268Z,121.88
2023-02-18T12:58:39.918Z,123.00
2023-02-18T13:01:52.051Z,128.27
2023-02-18T13:05:01.149Z,112.85
2023-02-18T13:08:03.662Z,120.28
2023-02-18T13:10:46.394Z,109.70
2023-02-18T13:13:35.296Z,126.90
2023-02-18T13:16:18.976Z,119.82
2023-02-18T13:18:55.961Z,107.80
2023-02-18T13:21:27.551Z,119.03
2023-02-18T13:24:11.946Z,120.13
2023-02-18T13:26:48.796Z,125.20
2023-02-18T13:29:40.797Z,124.93
2023-02-18T13:32:32.812Z,121.25
2023-02-18T13:35:06.338Z,113.63
2023-02-18T13:38:34.039Z,118.20
2023-02-18T13:41:09.014Z,117.43
2023-02-18T13:46:31.717Z,112.68
2023-02-18T13:49:03.533Z,117.22
2023-02-18T13:51:48.010Z,116.53
2023-02-18T13:54:50.020Z,117.10
2023-02-18T13:57:28.134Z,111.70
2023-02-18T14:00:09.278Z,115.05
2023-02-18T14:03:04.844Z,127.70
2023-02-18T14:05:45.374Z,115.47
2023-02-18T14:08:39.945Z,121.43
2023-02-18T14:11:15.253Z,124.07
2023-02-18T14:14:39.715Z,123.85
2023-02-18T14:17:41.131Z,130.17
2023-02-18T14:20:12.924Z,129.57
2023-02-18T14:22:50.813Z,129.32
2023-02-18T14:25:35.176Z,123.50
2023-02-18T14:30:56.848Z,126.88
2023-02-18T14:33:28.742Z,117.50
2023-02-18T14:36:25.989Z,125.07
2023-02-18T14:39:40.929Z,116.68
2023-02-18T14:42:39.760Z,140.20
2023-02-18T14:45:19.111Z,132.50
2023-02-18T14:48:16.599Z,128.30
2023-02-18T14:50:51.889Z,117.88
2023-02-18T14:53:46.702Z,170.47
2023-02-18T14:56:25.056Z,132.10
2023-02-18T14:59:03.718Z,135.48
2023-02-18T15:01:37.404Z,133.80
2023-02-18T15:06:41.457Z,127.10
2023-02-18T15:09:33.452Z,124.50
2023-02-18T15:12:12.469Z,120.30
2023-02-18T15:14:45.950Z,134.05
2023-02-18T15:17:23.896Z,121.72
2023-02-18T15:20:13.144Z,131.38
2023-02-18T15:22:45.320Z,128.43
2023-02-18T15:25:17.574Z,120.72
2023-02-18T15:27:48.971Z,122.40
2023-02-18T15:30:31.252Z,126.82
2023-02-18T15:33:04.664Z,132.10
2023-02-18T15:35:36.474Z,132.50
2023-02-18T15:38:24.173Z,118.50
2023-02-18T15:40:58.421Z,123.80
2023-02-18T15:43:29.934Z,122.93
2023-02-18T15:46:21.320Z,132.65
2023-02-18T15:48:54.673Z,108.50
2023-02-18T15:51:32.588Z,122.78
2023-02-18T15:54:07.210Z,116.32
2023-02-18T15:57:03.105Z,120.38
2023-02-18T15:59:44.909Z,111.18
2023-02-18T16:08:00.177Z,107.85
2023-02-18T16:10:38.470Z,114.68
2023-02-18T16:13:09.897Z,124.90
2023-02-18T16:15:47.252Z,121.88
2023-02-18T16:18:44.523Z,119.32
2023-02-18T16:21:24.020Z,121.47
2023-02-18T16:27:16.620Z,122.93
2023-02-18T16:29:48.047Z,119.30
2023-02-18T16:32:31.057Z,111.88
2023-02-18T16:35:06.621Z,121.50
2023-02-18T16:37:41.698Z,117.85
2023-02-18T16:40:27.279Z,115.70
2023-02-18T16:43:22.314Z,120.53
2023-02-18T16:48:52.158Z,107.65
2023-02-18T16:51:36.554Z,107.78
2023-02-18T16:54:07.926Z,111.15
2023-02-18T16:56:39.567Z,112.93
2023-02-18T16:59:11.169Z,107.38
2023-02-18T17:01:51.614Z,109.13
2023-02-18T17:04:31.365Z,117.07
2023-02-18T17:07:06.822Z,114.72
2023-02-18T17:09:38.187Z,113.57
2023-02-18T17:12:09.519Z,111.68
2023-02-18T17:14:41.961Z,115.28
2023-02-18T17:17:16.453Z,114.20
2023-02-18T17:19:47.468Z,114.07
2023-02-18T17:22:18.892Z,116.55
2023-02-18T17:24:49.758Z,104.45
2023-02-18T17:27:20.990Z,102.43
2023-02-18T17:32:36.799Z,107.53
2023-02-18T17:35:08.164Z,105.65
2023-02-18T17:37:39.437Z,114.65
2023-02-18T17:40:19.997Z,109.28
2023-02-18T17:42:51.965Z,105.18
2023-02-18T17:45:30.612Z,97.25
2023-02-18T17:48:03.981Z,111.20
2023-02-18T17:50:36.005Z,107.93
2023-02-18T17:53:08.674Z,110.13
2023-02-18T17:55:41.932Z,94.38
2023-02-18T17:58:14.757Z,114.55
2023-02-18T18:00:51.492Z,101.68
2023-02-18T18:03:23.620Z,97.10
2023-02-18T18:05:57.638Z,107.05
2023-02-18T18:08:29.927Z,108.18
2023-02-18T18:11:03.096Z,108.72
2023-02-18T18:13:34.833Z,107.73
2023-02-18T18:16:06.160Z,106.18
2023-02-18T18:18:38.433Z,115.65
2023-02-18T18:21:17.148Z,101.30
2023-02-18T18:23:48.415Z,114.03
2023-02-18T18:26:20.472Z,107.38
2023-02-18T18:28:51.687Z,106.20
2023-02-18T18:31:23.478Z,100.38
2023-02-18T18:33:54.871Z,96.90
2023-02-18T18:36:26.025Z,116.00
2023-02-18T18:38:57.199Z,96.72
2023-02-18T18:41:28.506Z,94.65
2023-02-18T18:43:59.548Z,100.97
2023-02-18T18:46:30.697Z,91.45
2023-02-18T18:49:01.933Z,105.65
2023-02-18T18:51:34.534Z,105.78
2023-02-18T18:54:05.788Z,91.50
2023-02-18T18:56:39.088Z,104.25
2023-02-18T18:59:11.803Z,92.35
2023-02-18T19:01:43.068Z,91.55
2023-02-18T19:04:14.336Z,94.35
2023-02-18T19:06:45.302Z,90.00
2023-02-18T19:09:16.331Z,96.43
2023-02-18T19:11:47.486Z,98.10
2023-02-18T19:14:18.302Z,83.72
2023-02-18T19:16:49.362Z,69.72
2023-02-18T19:19:22.563Z,101.07
2023-02-18T19:21:54.894Z,99.07
2023-02-18T19:24:25.909Z,93.72
2023-02-18T19:26:57.121Z,91.55
2023-02-18T19:29:29.474Z,97.30
2023-02-18T19:32:20.204Z,94.55
2023-02-18T19:34:51.194Z,99.13
2023-02-18T19:37:23.435Z,93.88
2023-02-18T19:39:54.858Z,83.72
2023-02-18T19:42:28.067Z,90.47
2023-02-18T19:47:30.772Z,88.55
2023-02-18T19:50:23.639Z,88.85
2023-02-18T19:52:59.801Z,97.63
2023-02-18T19:55:32.640Z,94.05
2023-02-18T19:58:07.754Z,85.57
2023-02-18T20:00:40.109Z,83.15
2023-02-18T20:03:10.813Z,72.78
2023-02-18T20:05:54.023Z,81.35
2023-02-18T20:08:26.155Z,92.53
2023-02-18T20:14:41.621Z,85.55
2023-02-18T20:17:13.150Z,87.50
2023-02-18T20:19:44.236Z,83.00
2023-02-18T20:22:15.348Z,83.65
2023-02-18T20:24:46.210Z,86.93
2023-02-18T20:27:18.015Z,81.35
2023-02-18T20:29:48.922Z,79.97
2023-02-18T20:32:20.625Z,82.68
2023-02-18T20:34:51.571Z,78.22
2023-02-18T20:37:23.195Z,79.55
2023-02-18T20:39:54.000Z,72.10
2023-02-18T20:42:24.916Z,72.15
2023-02-18T20:44:55.866Z,69.97
2023-02-18T20:47:27.031Z,70.60
2023-02-18T20:50:00.560Z,73.72
2023-02-18T20:52:33.617Z,67.90
2023-02-18T20:57:36.064Z,61.00
2023-02-18T21:00:07.896Z,60.65
2023-02-18T21:02:39.066Z,59.30
2023-02-18T21:05:10.678Z,57.22
2023-02-18T21:07:41.528Z,57.10
2023-02-18T21:10:12.330Z,48.53
2023-02-18T21:12:44.412Z,50.72
2023-02-18T21:15:15.610Z,46.38
2023-02-18T21:17:46.352Z,50.72
2023-02-18T21:20:17.076Z,45.15
2023-02-18T21:22:47.709Z,42.72
2023-02-18T21:25:18.729Z,49.60
2023-02-18T21:27:49.727Z,43.60
2023-02-18T21:30:43.984Z,42.97
2023-02-18T21:33:15.792Z,44.22
2023-02-18T21:35:46.944Z,45.92
2023-02-18T21:38:18.000Z,40.20
2023-02-18T21:40:49.101Z,45.08
2023-02-18T21:43:20.149Z,46.95
2023-02-18T21:45:50.930Z,42.97
2023-02-18T21:48:39.743Z,45.50
2023-02-18T21:51:30.522Z,41.58
2023-02-18T21:54:01.590Z,40.97
2023-02-18T21:56:32.366Z,50.75
2023-02-18T21:59:03.243Z,45.83
2023-02-18T22:01:34.204Z,43.05
2023-02-18T22:04:05.164Z,42.08
2023-02-18T22:06:36.605Z,42.97
2023-02-18T22:09:09.062Z,40.47
2023-02-18T22:11:41.270Z,42.15
2023-02-18T22:14:16.170Z,40.58
2023-02-18T22:16:47.038Z,42.45
2023-02-18T22:19:18.099Z,41.03
2023-02-18T22:21:49.274Z,41.72
2023-02-18T22:24:21.481Z,44.78
2023-02-18T22:26:52.864Z,40.25
2023-02-18T22:29:24.298Z,38.65
2023-02-18T22:31:55.642Z,36.80
2023-02-18T22:34:27.056Z,38.97
2023-02-18T22:36:57.989Z,39.40
2023-02-18T22:39:29.942Z,39.20
2023-02-18T22:42:00.968Z,36.67
2023-02-18T22:44:32.083Z,33.95
2023-02-18T22:47:03.196Z,32.47
2023-02-18T22:49:34.153Z,33.67
2023-02-18T22:52:05.339Z,32.60
2023-02-18T22:54:36.294Z,31.85
2023-02-18T22:57:06.952Z,28.30
2023-02-18T22:59:38.000Z,28.23
2023-02-18T23:02:09.248Z,28.42
2023-02-18T23:04:43.294Z,26.50
2023-02-18T23:07:14.578Z,24.42
2023-02-18T23:09:45.697Z,24.67
2023-02-18T23:12:16.977Z,22.67
2023-02-18T23:14:47.779Z,24.63
2023-02-18T23:17:19.354Z,20.58
2023-02-18T23:19:52.917Z,24.00
2023-02-18T23:22:34.873Z,23.17
2023-02-18T23:25:06.157Z,21.58
2023-02-18T23:27:37.170Z,20.52
2023-02-18T23:30:08.426Z,19.00
2023-02-18T23:32:39.376Z,21.02
2023-02-18T23:35:12.670Z,19.50
2023-02-18T23:38:01.751Z,17.52
2023-02-18T23:40:32.638Z,17.48
2023-02-18T23:43:03.594Z,20.52
2023-02-18T23:45:34.417Z,18.52
2023-02-18T23:48:05.506Z,18.23
2023-02-18T23:50:36.210Z,16.88
2023-02-18T23:53:07.065Z,15.35
2023-02-18T23:55:37.848Z,13.32
2023-02-18T23:58:09.066Z,15.75
